sensor_id;sensor_type;location;lat;lon;timestamp;temperature;humidity
1678;DHT22;6034;46.864;15.216;2023-12-07T06:02:28;1.50;99.90
1678;DHT22;6034;46.864;15.216;2023-12-07T06:04:55;1.50;99.90
1678;DHT22;6034;46.864;15.216;2023-12-07T06:07:23;1.30;99.90
1678;DHT22;6034;46.864;15.216;2023-12-07T06:09:50;1.40;99.90
1678;DHT22;6034;46.864;15.216;2023-12-07T06:12:18;1.50;99.90
1678;DHT22;6034;46.864;15.216;2023-12-07T06:14:47;1.40;99.90
1678;DHT22;6034;46.864;15.216;2023-12-07T06:17:14;1.40;99.90
1678;DHT22;6034;46.864;15.216;2023-12-07T06:19:43;1.50;99.90
1678;DHT22;6034;46.864;15.216;2023-12-07T06:22:11;1.60;99.90
1678;DHT22;6034;46.864;15.216;2023-12-07T06:24:39;1.50;99.90
1678;DHT22;6034;46.864;15.216;2023-12-07T06:27:07;1.50;99.90
1678;DHT22;6034;46.864;15.216;2023-12-07T06:29:35;1.50;99.90
1678;DHT22;6034;46.864;15.216;2023-12-07T06:32:03;1.60;99.90
1678;DHT22;6034;46.864;15.216;2023-12-07T06:34:30;1.60;99.90
1678;DHT22;6034;46.864;15.216;2023-12-07T06:36:59;1.70;99.90
1678;DHT22;6034;46.864;15.216;2023-12-07T06:39:26;1.70;99.90
1678;DHT22;6034;46.864;15.216;2023-12-07T06:41:54;1.70;99.90
1678;DHT22;6034;46.864;15.216;2023-12-07T06:44:21;1.80;99.90
1678;DHT22;6034;46.864;15.216;2023-12-07T06:46:49;1.70;99.90
1678;DHT22;6034;46.864;15.216;2023-12-07T06:49:17;1.60;99.90
1678;DHT22;6034;46.864;15.216;2023-12-07T06:51:44;1.60;99.90
1678;DHT22;6034;46.864;15.216;2023-12-07T06:54:13;1.60;99.90
1678;DHT22;6034;46.864;15.216;2023-12-07T06:56:41;1.60;99.90
1678;DHT22;6034;46.864;15.216;2023-12-07T06:59:08;1.70;99.90
1678;DHT22;6034;46.864;15.216;2023-12-07T07:01:36;1.80;99.90
1678;DHT22;6034;46.864;15.216;2023-12-07T07:04:03;1.90;99.90
1678;DHT22;6034;46.864;15.216;2023-12-07T07:06:31;1.90;99.90
1678;DHT22;6034;46.864;15.216;2023-12-07T07:08:58;1.90;99.90
1678;DHT22;6034;46.864;15.216;2023-12-07T07:11:27;1.90;99.90
1678;DHT22;6034;46.864;15.216;2023-12-07T07:13:54;2.00;99.90
1678;DHT22;6034;46.864;15.216;2023-12-07T07:16:22;2.00;99.90
1678;DHT22;6034;46.864;15.216;2023-12-07T07:18:49;2.10;99.90
1678;DHT22;6034;46.864;15.216;2023-12-07T07:21:17;2.10;99.90
1678;DHT22;6034;46.864;15.216;2023-12-07T07:23:46;2.10;99.90
1678;DHT22;6034;46.864;15.216;2023-12-07T07:26:16;2.20;99.90
1678;DHT22;6034;46.864;15.216;2023-12-07T07:28:46;2.30;99.90
1678;DHT22;6034;46.864;15.216;2023-12-07T07:31:14;2.40;99.90
1678;DHT22;6034;46.864;15.216;2023-12-07T07:33:41;2.50;99.90
1678;DHT22;6034;46.864;15.216;2023-12-07T07:36:09;2.50;99.90
1678;DHT22;6034;46.864;15.216;2023-12-07T07:38:37;2.70;99.90
1678;DHT22;6034;46.864;15.216;2023-12-07T07:41:05;2.70;99.90
1678;DHT22;6034;46.864;15.216;2023-12-07T07:43:33;2.70;99.90
1678;DHT22;6034;46.864;15.216;2023-12-07T07:46:03;2.80;99.90
1678;DHT22;6034;46.864;15.216;2023-12-07T07:48:31;2.90;99.90
1678;DHT22;6034;46.864;15.216;2023-12-07T07:51:00;3.00;99.90
1678;DHT22;6034;46.864;15.216;2023-12-07T07:53:28;3.10;99.90
1678;DHT22;6034;46.864;15.216;2023-12-07T07:55:56;3.20;99.90
1678;DHT22;6034;46.864;15.216;2023-12-07T07:58:31;3.20;99.90
1678;DHT22;6034;46.864;15.216;2023-12-07T08:00:59;3.30;99.90
1678;DHT22;6034;46.864;15.216;2023-12-07T08:03:34;3.40;99.90
1678;DHT22;6034;46.864;15.216;2023-12-07T08:06:01;3.40;99.90
1678;DHT22;6034;46.864;15.216;2023-12-07T08:08:29;3.50;99.90
1678;DHT22;6034;46.864;15.216;2023-12-07T08:10:57;3.60;99.90
1678;DHT22;6034;46.864;15.216;2023-12-07T08:13:25;3.70;99.90
1678;DHT22;6034;46.864;15.216;2023-12-07T08:15:53;3.80;99.90
1678;DHT22;6034;46.864;15.216;2023-12-07T08:18:20;3.90;99.90
1678;DHT22;6034;46.864;15.216;2023-12-07T08:20:49;3.90;99.90
1678;DHT22;6034;46.864;15.216;2023-12-07T08:23:17;3.90;99.90
1678;DHT22;6034;46.864;15.216;2023-12-07T08:25:48;4.00;99.90
1678;DHT22;6034;46.864;15.216;2023-12-07T08:28:17;4.20;99.90
1678;DHT22;6034;46.864;15.216;2023-12-07T08:30:45;4.20;99.90
1678;DHT22;6034;46.864;15.216;2023-12-07T08:33:13;4.30;99.90
1678;DHT22;6034;46.864;15.216;2023-12-07T08:35:41;4.40;99.90
1678;DHT22;6034;46.864;15.216;2023-12-07T08:38:10;4.40;99.90
1678;DHT22;6034;46.864;15.216;2023-12-07T08:40:37;4.50;99.90
1678;DHT22;6034;46.864;15.216;2023-12-07T08:43:05;4.50;99.90
1678;DHT22;6034;46.864;15.216;2023-12-07T08:45:33;4.50;99.90
1678;DHT22;6034;46.864;15.216;2023-12-07T08:48:04;4.50;99.90
1678;DHT22;6034;46.864;15.216;2023-12-07T08:50:32;4.30;99.90
1678;DHT22;6034;46.864;15.216;2023-12-07T08:53:01;4.00;99.90
1678;DHT22;6034;46.864;15.216;2023-12-07T08:55:30;4.30;99.90
1678;DHT22;6034;46.864;15.216;2023-12-07T08:58:01;4.40;99.90
1678;DHT22;6034;46.864;15.216;2023-12-07T09:00:30;4.40;99.90
1678;DHT22;6034;46.864;15.216;2023-12-07T09:02:58;4.50;99.90
1678;DHT22;6034;46.864;15.216;2023-12-07T09:05:26;4.60;99.90
1678;DHT22;6034;46.864;15.216;2023-12-07T09:07:53;4.60;99.90
1678;DHT22;6034;46.864;15.216;2023-12-07T09:10:22;4.20;99.90
1678;DHT22;6034;46.864;15.216;2023-12-07T09:12:53;4.50;99.90
1678;DHT22;6034;46.864;15.216;2023-12-07T09:15:20;4.80;99.90
1678;DHT22;6034;46.864;15.216;2023-12-07T09:17:49;4.80;99.90
1678;DHT22;6034;46.864;15.216;2023-12-07T09:20:16;4.90;99.90
1678;DHT22;6034;46.864;15.216;2023-12-07T09:22:44;4.90;99.90
1678;DHT22;6034;46.864;15.216;2023-12-07T09:25:12;5.00;99.90
1678;DHT22;6034;46.864;15.216;2023-12-07T09:27:39;4.70;99.90
1678;DHT22;6034;46.864;15.216;2023-12-07T09:30:10;4.40;99.90
1678;DHT22;6034;46.864;15.216;2023-12-07T09:32:38;4.60;99.90
1678;DHT22;6034;46.864;15.216;2023-12-07T09:35:06;4.90;99.90
1678;DHT22;6034;46.864;15.216;2023-12-07T09:37:34;5.10;99.90
1678;DHT22;6034;46.864;15.216;2023-12-07T09:40:02;5.10;99.90
1678;DHT22;6034;46.864;15.216;2023-12-07T09:42:31;5.20;99.90
1678;DHT22;6034;46.864;15.216;2023-12-07T09:44:59;5.30;99.90
1678;DHT22;6034;46.864;15.216;2023-12-07T09:47:31;5.20;99.90
1678;DHT22;6034;46.864;15.216;2023-12-07T09:50:01;5.20;99.90
1678;DHT22;6034;46.864;15.216;2023-12-07T09:52:29;5.30;99.90
1678;DHT22;6034;46.864;15.216;2023-12-07T09:54:57;5.50;99.90
1678;DHT22;6034;46.864;15.216;2023-12-07T09:57:25;5.50;99.90
1678;DHT22;6034;46.864;15.216;2023-12-07T09:59:53;5.50;99.90
1678;DHT22;6034;46.864;15.216;2023-12-07T10:02:20;5.60;99.90
1678;DHT22;6034;46.864;15.216;2023-12-07T10:05:02;5.50;99.90
1678;DHT22;6034;46.864;15.216;2023-12-07T10:07:32;5.60;99.90
1678;DHT22;6034;46.864;15.216;2023-12-07T10:10:03;5.70;99.90
1678;DHT22;6034;46.864;15.216;2023-12-07T10:12:31;5.70;99.90
1678;DHT22;6034;46.864;15.216;2023-12-07T10:15:00;5.60;99.90
1678;DHT22;6034;46.864;15.216;2023-12-07T10:17:44;5.70;99.90
1678;DHT22;6034;46.864;15.216;2023-12-07T10:20:16;5.80;99.90
1678;DHT22;6034;46.864;15.216;2023-12-07T10:22:45;5.80;99.90
1678;DHT22;6034;46.864;15.216;2023-12-07T10:25:14;5.80;99.90
1678;DHT22;6034;46.864;15.216;2023-12-07T10:27:44;5.90;99.90
1678;DHT22;6034;46.864;15.216;2023-12-07T10:30:12;5.80;99.90
1678;DHT22;6034;46.864;15.216;2023-12-07T10:32:40;5.70;99.90
1678;DHT22;6034;46.864;15.216;2023-12-07T10:35:08;5.70;99.90
1678;DHT22;6034;46.864;15.216;2023-12-07T10:37:37;5.50;99.90
1678;DHT22;6034;46.864;15.216;2023-12-07T10:40:05;5.50;99.90
1678;DHT22;6034;46.864;15.216;2023-12-07T10:42:34;5.50;99.90
1678;DHT22;6034;46.864;15.216;2023-12-07T10:45:05;5.60;99.90
1678;DHT22;6034;46.864;15.216;2023-12-07T10:47:37;5.70;99.90
1678;DHT22;6034;46.864;15.216;2023-12-07T10:50:07;5.50;99.90
1678;DHT22;6034;46.864;15.216;2023-12-07T10:52:45;5.60;99.90
1678;DHT22;6034;46.864;15.216;2023-12-07T10:55:17;5.60;99.90
1678;DHT22;6034;46.864;15.216;2023-12-07T10:57:48;5.80;99.90
1678;DHT22;6034;46.864;15.216;2023-12-07T11:00:18;5.90;99.90
1678;DHT22;6034;46.864;15.216;2023-12-07T11:02:51;5.40;99.90
1678;DHT22;6034;46.864;15.216;2023-12-07T11:05:34;5.30;99.90
1678;DHT22;6034;46.864;15.216;2023-12-07T11:08:07;5.40;99.90
1678;DHT22;6034;46.864;15.216;2023-12-07T11:10:45;5.60;99.90
1678;DHT22;6034;46.864;15.216;2023-12-07T11:13:26;5.50;99.90
1678;DHT22;6034;46.864;15.216;2023-12-07T11:15:54;5.60;99.90
1678;DHT22;6034;46.864;15.216;2023-12-07T11:18:41;5.60;99.90
1678;DHT22;6034;46.864;15.216;2023-12-07T11:47:18;4.60;99.90
1678;DHT22;6034;46.864;15.216;2023-12-07T11:49:47;5.90;99.90
1678;DHT22;6034;46.864;15.216;2023-12-07T11:52:15;5.90;99.90
1678;DHT22;6034;46.864;15.216;2023-12-07T11:54:46;5.80;99.90
1678;DHT22;6034;46.864;15.216;2023-12-07T11:57:14;5.80;99.90
1678;DHT22;6034;46.864;15.216;2023-12-07T11:59:42;5.70;99.90
1678;DHT22;6034;46.864;15.216;2023-12-07T12:02:10;5.70;99.90
1678;DHT22;6034;46.864;15.216;2023-12-07T12:04:40;5.80;99.90
1678;DHT22;6034;46.864;15.216;2023-12-07T12:07:08;5.90;99.90
1678;DHT22;6034;46.864;15.216;2023-12-07T12:09:35;6.00;99.90
1678;DHT22;6034;46.864;15.216;2023-12-07T12:12:03;6.10;99.90
1678;DHT22;6034;46.864;15.216;2023-12-07T12:14:31;6.10;99.90
1678;DHT22;6034;46.864;15.216;2023-12-07T12:16:58;6.10;99.90
1678;DHT22;6034;46.864;15.216;2023-12-07T12:19:26;6.20;99.90
1678;DHT22;6034;46.864;15.216;2023-12-07T12:21:57;6.20;99.90
1678;DHT22;6034;46.864;15.216;2023-12-07T12:24:26;6.10;99.90
1678;DHT22;6034;46.864;15.216;2023-12-07T12:26:55;6.10;99.90
1678;DHT22;6034;46.864;15.216;2023-12-07T12:29:24;6.20;99.90
1678;DHT22;6034;46.864;15.216;2023-12-07T12:31:51;6.10;99.90
1678;DHT22;6034;46.864;15.216;2023-12-07T12:34:21;6.10;99.90
1678;DHT22;6034;46.864;15.216;2023-12-07T12:36:48;6.00;99.90
1678;DHT22;6034;46.864;15.216;2023-12-07T12:39:17;6.10;99.90
1678;DHT22;6034;46.864;15.216;2023-12-07T12:41:44;6.20;99.90
1678;DHT22;6034;46.864;15.216;2023-12-07T12:44:12;6.10;99.90
1678;DHT22;6034;46.864;15.216;2023-12-07T12:46:40;6.20;99.90
1678;DHT22;6034;46.864;15.216;2023-12-07T12:49:07;6.10;99.90
1678;DHT22;6034;46.864;15.216;2023-12-07T12:51:38;6.10;99.90
1678;DHT22;6034;46.864;15.216;2023-12-07T12:54:05;6.00;99.90
1678;DHT22;6034;46.864;15.216;2023-12-07T12:56:34;5.90;99.90
1678;DHT22;6034;46.864;15.216;2023-12-07T12:59:02;6.00;99.90
1678;DHT22;6034;46.864;15.216;2023-12-07T13:01:29;6.00;99.90
1678;DHT22;6034;46.864;15.216;2023-12-07T13:03:57;6.00;99.90
1678;DHT22;6034;46.864;15.216;2023-12-07T13:06:25;6.00;99.90
1678;DHT22;6034;46.864;15.216;2023-12-07T13:08:52;6.00;99.90
1678;DHT22;6034;46.864;15.216;2023-12-07T13:11:20;6.00;99.90
1678;DHT22;6034;46.864;15.216;2023-12-07T13:13:49;6.00;99.90
1678;DHT22;6034;46.864;15.216;2023-12-07T13:16:17;6.00;99.90
1678;DHT22;6034;46.864;15.216;2023-12-07T13:18:46;6.00;99.90
1678;DHT22;6034;46.864;15.216;2023-12-07T13:21:14;6.00;99.90
1678;DHT22;6034;46.864;15.216;2023-12-07T13:23:41;6.00;99.90
1678;DHT22;6034;46.864;15.216;2023-12-07T13:26:11;5.90;99.90
1678;DHT22;6034;46.864;15.216;2023-12-07T13:28:39;6.00;99.90
1678;DHT22;6034;46.864;15.216;2023-12-07T13:31:07;5.90;99.90
1678;DHT22;6034;46.864;15.216;2023-12-07T13:33:35;5.90;99.90
1678;DHT22;6034;46.864;15.216;2023-12-07T13:36:04;6.00;99.90
1678;DHT22;6034;46.864;15.216;2023-12-07T13:38:32;5.80;99.90
1678;DHT22;6034;46.864;15.216;2023-12-07T13:41:00;5.80;99.90
1678;DHT22;6034;46.864;15.216;2023-12-07T13:43:27;5.70;99.90
1678;DHT22;6034;46.864;15.216;2023-12-07T13:45:55;5.70;99.90
1678;DHT22;6034;46.864;15.216;2023-12-07T13:48:24;5.70;99.90
1678;DHT22;6034;46.864;15.216;2023-12-07T13:50:53;5.50;99.90
1678;DHT22;6034;46.864;15.216;2023-12-07T13:53:21;5.50;99.90
1678;DHT22;6034;46.864;15.216;2023-12-07T13:55:48;5.30;99.90
1678;DHT22;6034;46.864;15.216;2023-12-07T13:58:16;5.30;99.90
1678;DHT22;6034;46.864;15.216;2023-12-07T14:00:44;5.30;99.90
1678;DHT22;6034;46.864;15.216;2023-12-07T14:03:12;5.30;99.90
1678;DHT22;6034;46.864;15.216;2023-12-07T14:05:41;5.20;99.90
1678;DHT22;6034;46.864;15.216;2023-12-07T14:08:09;5.10;99.90
1678;DHT22;6034;46.864;15.216;2023-12-07T14:10:36;5.00;99.90
1678;DHT22;6034;46.864;15.216;2023-12-07T14:13:04;4.90;99.90
1678;DHT22;6034;46.864;15.216;2023-12-07T14:15:31;5.00;99.90
1678;DHT22;6034;46.864;15.216;2023-12-07T14:18:01;4.80;99.90
1678;DHT22;6034;46.864;15.216;2023-12-07T14:20:29;5.00;99.90
1678;DHT22;6034;46.864;15.216;2023-12-07T14:22:58;4.90;99.90
1678;DHT22;6034;46.864;15.216;2023-12-07T14:25:30;4.90;99.90
1678;DHT22;6034;46.864;15.216;2023-12-07T14:27:57;4.90;99.90
1678;DHT22;6034;46.864;15.216;2023-12-07T14:30:25;4.60;99.90
1678;DHT22;6034;46.864;15.216;2023-12-07T14:32:53;4.60;99.90
1678;DHT22;6034;46.864;15.216;2023-12-07T14:35:20;4.50;99.90
1678;DHT22;6034;46.864;15.216;2023-12-07T14:37:49;4.50;99.90
1678;DHT22;6034;46.864;15.216;2023-12-07T14:40:20;4.30;99.90
1678;DHT22;6034;46.864;15.216;2023-12-07T14:42:47;4.40;99.90
1678;DHT22;6034;46.864;15.216;2023-12-07T14:45:15;4.30;99.90
1678;DHT22;6034;46.864;15.216;2023-12-07T14:47:44;4.20;99.90
1678;DHT22;6034;46.864;15.216;2023-12-07T14:50:12;4.20;99.90
1678;DHT22;6034;46.864;15.216;2023-12-07T14:52:39;4.20;99.90
1678;DHT22;6034;46.864;15.216;2023-12-07T14:55:07;4.20;99.90
1678;DHT22;6034;46.864;15.216;2023-12-07T14:57:43;4.10;99.90
1678;DHT22;6034;46.864;15.216;2023-12-07T15:00:11;4.00;99.90
1678;DHT22;6034;46.864;15.216;2023-12-07T15:02:39;3.90;99.90
1678;DHT22;6034;46.864;15.216;2023-12-07T15:05:08;3.90;99.90
1678;DHT22;6034;46.864;15.216;2023-12-07T15:07:36;3.80;99.90
1678;DHT22;6034;46.864;15.216;2023-12-07T15:10:06;3.90;99.90
1678;DHT22;6034;46.864;15.216;2023-12-07T15:12:33;3.80;99.90
1678;DHT22;6034;46.864;15.216;2023-12-07T15:15:02;3.80;99.90
1678;DHT22;6034;46.864;15.216;2023-12-07T15:17:32;3.80;99.90
1678;DHT22;6034;46.864;15.216;2023-12-07T15:20:00;3.80;99.90
1678;DHT22;6034;46.864;15.216;2023-12-07T15:22:29;3.70;99.90
1678;DHT22;6034;46.864;15.216;2023-12-07T15:25:00;3.70;99.90
1678;DHT22;6034;46.864;15.216;2023-12-07T15:27:29;3.80;99.90
1678;DHT22;6034;46.864;15.216;2023-12-07T15:29:57;3.80;99.90
1678;DHT22;6034;46.864;15.216;2023-12-07T15:32:26;3.90;99.90
1678;DHT22;6034;46.864;15.216;2023-12-07T15:34:54;3.80;99.90
1678;DHT22;6034;46.864;15.216;2023-12-07T15:37:21;3.80;99.90
1678;DHT22;6034;46.864;15.216;2023-12-07T15:39:50;3.50;99.90
1678;DHT22;6034;46.864;15.216;2023-12-07T15:42:18;3.50;99.90
1678;DHT22;6034;46.864;15.216;2023-12-07T15:44:45;3.20;99.90
1678;DHT22;6034;46.864;15.216;2023-12-07T15:47:12;2.80;99.90
1678;DHT22;6034;46.864;15.216;2023-12-07T15:49:42;3.00;99.90
1678;DHT22;6034;46.864;15.216;2023-12-07T15:52:10;3.30;99.90
1678;DHT22;6034;46.864;15.216;2023-12-07T15:54:37;3.30;99.90
1678;DHT22;6034;46.864;15.216;2023-12-07T15:57:05;3.30;99.90
1678;DHT22;6034;46.864;15.216;2023-12-07T15:59:33;3.30;99.90
1678;DHT22;6034;46.864;15.216;2023-12-07T16:02:01;3.30;99.90
1678;DHT22;6034;46.864;15.216;2023-12-07T16:04:29;3.00;99.90
1678;DHT22;6034;46.864;15.216;2023-12-07T16:07:05;3.00;99.90
1678;DHT22;6034;46.864;15.216;2023-12-07T16:09:32;3.00;99.90
1678;DHT22;6034;46.864;15.216;2023-12-07T16:12:01;3.10;99.90
1678;DHT22;6034;46.864;15.216;2023-12-07T16:14:30;3.30;99.90
1678;DHT22;6034;46.864;15.216;2023-12-07T16:16:58;3.30;99.90
1678;DHT22;6034;46.864;15.216;2023-12-07T16:19:27;3.20;99.90
1678;DHT22;6034;46.864;15.216;2023-12-07T16:21:54;3.20;99.90
1678;DHT22;6034;46.864;15.216;2023-12-07T16:24:23;3.00;99.90
1678;DHT22;6034;46.864;15.216;2023-12-07T16:26:51;2.80;99.90
1678;DHT22;6034;46.864;15.216;2023-12-07T16:29:18;2.80;99.90
1678;DHT22;6034;46.864;15.216;2023-12-07T16:31:47;2.80;99.90
1678;DHT22;6034;46.864;15.216;2023-12-07T16:34:14;2.80;99.90
1678;DHT22;6034;46.864;15.216;2023-12-07T16:36:42;2.80;99.90
1678;DHT22;6034;46.864;15.216;2023-12-07T16:39:10;2.70;99.90
1678;DHT22;6034;46.864;15.216;2023-12-07T16:41:39;2.80;99.90
1678;DHT22;6034;46.864;15.216;2023-12-07T16:44:07;2.70;99.90
1678;DHT22;6034;46.864;15.216;2023-12-07T16:46:34;2.90;99.90
1678;DHT22;6034;46.864;15.216;2023-12-07T16:49:01;3.00;99.90
1678;DHT22;6034;46.864;15.216;2023-12-07T16:51:29;2.90;99.90
1678;DHT22;6034;46.864;15.216;2023-12-07T16:53:56;2.90;99.90
1678;DHT22;6034;46.864;15.216;2023-12-07T16:56:25;3.00;99.90
1678;DHT22;6034;46.864;15.216;2023-12-07T16:58:54;2.90;99.90
1678;DHT22;6034;46.864;15.216;2023-12-07T17:01:22;3.00;99.90
1678;DHT22;6034;46.864;15.216;2023-12-07T17:03:51;3.00;99.90
1678;DHT22;6034;46.864;15.216;2023-12-07T17:06:19;2.90;99.90
1678;DHT22;6034;46.864;15.216;2023-12-07T17:08:46;2.90;99.90
1678;DHT22;6034;46.864;15.216;2023-12-07T17:11:15;2.80;99.90
1678;DHT22;6034;46.864;15.216;2023-12-07T17:13:43;2.90;99.90
1678;DHT22;6034;46.864;15.216;2023-12-07T17:16:13;2.90;99.90
1678;DHT22;6034;46.864;15.216;2023-12-07T17:18:41;2.90;99.90
1678;DHT22;6034;46.864;15.216;2023-12-07T17:21:08;2.90;99.90
1678;DHT22;6034;46.864;15.216;2023-12-07T17:23:35;2.70;99.90
1678;DHT22;6034;46.864;15.216;2023-12-07T17:26:03;2.60;99.90
1678;DHT22;6034;46.864;15.216;2023-12-07T17:28:31;2.40;99.90
1678;DHT22;6034;46.864;15.216;2023-12-07T17:30:59;2.50;99.90
1678;DHT22;6034;46.864;15.216;2023-12-07T17:33:30;2.60;99.90
1678;DHT22;6034;46.864;15.216;2023-12-07T17:35:57;2.60;99.90
1678;DHT22;6034;46.864;15.216;2023-12-07T17:38:24;2.70;99.90
1678;DHT22;6034;46.864;15.216;2023-12-07T17:40:52;2.40;99.90
1678;DHT22;6034;46.864;15.216;2023-12-07T17:43:19;2.50;99.90
1678;DHT22;6034;46.864;15.216;2023-12-07T17:45:47;2.50;99.90
1678;DHT22;6034;46.864;15.216;2023-12-07T17:48:17;2.40;99.90
1678;DHT22;6034;46.864;15.216;2023-12-07T17:50:46;2.30;99.90
1678;DHT22;6034;46.864;15.216;2023-12-07T17:53:13;2.50;99.90
1678;DHT22;6034;46.864;15.216;2023-12-07T17:55:41;2.50;99.90
1678;DHT22;6034;46.864;15.216;2023-12-07T17:58:08;2.50;99.90
1678;DHT22;6034;46.864;15.216;2023-12-07T18:00:36;2.40;99.90
1678;DHT22;6034;46.864;15.216;2023-12-07T18:03:03;2.40;99.90
1678;DHT22;6034;46.864;15.216;2023-12-07T18:05:31;2.30;99.90
1678;DHT22;6034;46.864;15.216;2023-12-07T18:07:59;2.30;99.90
1678;DHT22;6034;46.864;15.216;2023-12-07T18:10:28;2.20;99.90
1678;DHT22;6034;46.864;15.216;2023-12-07T18:12:56;2.00;99.90
1678;DHT22;6034;46.864;15.216;2023-12-07T18:15:23;2.10;99.90
1678;DHT22;6034;46.864;15.216;2023-12-07T18:17:51;2.20;99.90
1678;DHT22;6034;46.864;15.216;2023-12-07T18:20:18;2.20;99.90
1678;DHT22;6034;46.864;15.216;2023-12-07T18:22:46;2.20;99.90
1678;DHT22;6034;46.864;15.216;2023-12-07T18:25:14;2.30;99.90
1678;DHT22;6034;46.864;15.216;2023-12-07T18:27:42;2.20;99.90
1678;DHT22;6034;46.864;15.216;2023-12-07T18:30:10;2.30;99.90
1678;DHT22;6034;46.864;15.216;2023-12-07T18:32:37;2.30;99.90
1678;DHT22;6034;46.864;15.216;2023-12-07T18:35:05;2.30;99.90
1678;DHT22;6034;46.864;15.216;2023-12-07T18:37:36;2.10;99.90
1678;DHT22;6034;46.864;15.216;2023-12-07T18:40:04;2.10;99.90
1678;DHT22;6034;46.864;15.216;2023-12-07T18:42:32;2.20;99.90
1678;DHT22;6034;46.864;15.216;2023-12-07T18:45:00;2.10;99.90
1678;DHT22;6034;46.864;15.216;2023-12-07T18:47:27;2.10;99.90
1678;DHT22;6034;46.864;15.216;2023-12-07T18:49:54;2.20;99.90
1678;DHT22;6034;46.864;15.216;2023-12-07T18:52:22;2.20;99.90
1678;DHT22;6034;46.864;15.216;2023-12-07T18:54:51;2.20;99.90
1678;DHT22;6034;46.864;15.216;2023-12-07T18:57:19;2.10;99.90
1678;DHT22;6034;46.864;15.216;2023-12-07T18:59:48;2.00;99.90
1678;DHT22;6034;46.864;15.216;2023-12-07T19:02:15;1.90;99.90
1678;DHT22;6034;46.864;15.216;2023-12-07T19:04:43;2.00;99.90
1678;DHT22;6034;46.864;15.216;2023-12-07T19:07:11;1.80;99.90
1678;DHT22;6034;46.864;15.216;2023-12-07T19:09:38;1.90;99.90
1678;DHT22;6034;46.864;15.216;2023-12-07T19:12:12;1.90;99.90
1678;DHT22;6034;46.864;15.216;2023-12-07T19:14:39;1.90;99.90
1678;DHT22;6034;46.864;15.216;2023-12-07T19:17:08;1.90;99.90
1678;DHT22;6034;46.864;15.216;2023-12-07T19:19:37;1.80;99.90
1678;DHT22;6034;46.864;15.216;2023-12-07T19:22:04;1.70;99.90
1678;DHT22;6034;46.864;15.216;2023-12-07T19:24:31;1.80;99.90
1678;DHT22;6034;46.864;15.216;2023-12-07T19:26:59;1.70;99.90
1678;DHT22;6034;46.864;15.216;2023-12-07T19:29:27;1.80;99.90
1678;DHT22;6034;46.864;15.216;2023-12-07T19:31:57;1.80;99.90
1678;DHT22;6034;46.864;15.216;2023-12-07T19:34:26;1.70;99.90
1678;DHT22;6034;46.864;15.216;2023-12-07T19:36:53;1.60;99.90
1678;DHT22;6034;46.864;15.216;2023-12-07T19:39:20;1.70;99.90
1678;DHT22;6034;46.864;15.216;2023-12-07T19:41:47;1.70;99.90
1678;DHT22;6034;46.864;15.216;2023-12-07T19:44:15;1.70;99.90
1678;DHT22;6034;46.864;15.216;2023-12-07T19:46:43;1.60;99.90
1678;DHT22;6034;46.864;15.216;2023-12-07T19:49:11;1.60;99.90
1678;DHT22;6034;46.864;15.216;2023-12-07T19:51:40;1.60;99.90
1678;DHT22;6034;46.864;15.216;2023-12-07T19:54:07;1.60;99.90
1678;DHT22;6034;46.864;15.216;2023-12-07T19:56:35;1.50;99.90
1678;DHT22;6034;46.864;15.216;2023-12-07T19:59:02;1.40;99.90
1678;DHT22;6034;46.864;15.216;2023-12-07T20:01:31;1.40;99.90
1678;DHT22;6034;46.864;15.216;2023-12-07T20:03:58;1.50;99.90
1678;DHT22;6034;46.864;15.216;2023-12-07T20:06:26;1.40;99.90
1678;DHT22;6034;46.864;15.216;2023-12-07T20:08:56;1.30;99.90
1678;DHT22;6034;46.864;15.216;2023-12-07T20:11:23;1.20;99.90
1678;DHT22;6034;46.864;15.216;2023-12-07T20:13:51;1.30;99.90
1678;DHT22;6034;46.864;15.216;2023-12-07T20:16:19;1.30;99.90
1678;DHT22;6034;46.864;15.216;2023-12-07T20:18:48;1.30;99.90
1678;DHT22;6034;46.864;15.216;2023-12-07T20:21:18;1.30;99.90
1678;DHT22;6034;46.864;15.216;2023-12-07T20:23:47;1.30;99.90
1678;DHT22;6034;46.864;15.216;2023-12-07T20:26:18;1.20;99.90
1678;DHT22;6034;46.864;15.216;2023-12-07T20:28:48;1.20;99.90
1678;DHT22;6034;46.864;15.216;2023-12-07T20:31:18;1.10;99.90
1678;DHT22;6034;46.864;15.216;2023-12-07T20:33:46;1.10;99.90
1678;DHT22;6034;46.864;15.216;2023-12-07T20:36:14;1.10;99.90
1678;DHT22;6034;46.864;15.216;2023-12-07T20:38:42;1.00;99.90
1678;DHT22;6034;46.864;15.216;2023-12-07T20:41:11;1.10;99.90
1678;DHT22;6034;46.864;15.216;2023-12-07T20:43:40;1.10;99.90
1678;DHT22;6034;46.864;15.216;2023-12-07T20:46:08;1.00;99.90
1678;DHT22;6034;46.864;15.216;2023-12-07T20:48:36;1.10;99.90
1678;DHT22;6034;46.864;15.216;2023-12-07T20:51:04;1.00;99.90
1678;DHT22;6034;46.864;15.216;2023-12-07T20:53:32;0.90;99.90
1678;DHT22;6034;46.864;15.216;2023-12-07T20:55:59;1.00;99.90
1678;DHT22;6034;46.864;15.216;2023-12-07T20:58:27;0.80;99.90
1678;DHT22;6034;46.864;15.216;2023-12-07T21:00:59;0.80;99.90
1678;DHT22;6034;46.864;15.216;2023-12-07T21:03:26;0.90;99.90
1678;DHT22;6034;46.864;15.216;2023-12-07T21:05:54;0.90;99.90
1678;DHT22;6034;46.864;15.216;2023-12-07T21:08:22;0.80;99.90
1678;DHT22;6034;46.864;15.216;2023-12-07T21:10:49;0.80;99.90
1678;DHT22;6034;46.864;15.216;2023-12-07T21:13:17;0.80;99.90
1678;DHT22;6034;46.864;15.216;2023-12-07T21:15:44;0.70;99.90
1678;DHT22;6034;46.864;15.216;2023-12-07T21:18:13;0.80;99.90
1678;DHT22;6034;46.864;15.216;2023-12-07T21:20:41;0.90;99.90
1678;DHT22;6034;46.864;15.216;2023-12-07T21:23:08;0.90;99.90
1678;DHT22;6034;46.864;15.216;2023-12-07T21:25:38;0.90;99.90
1678;DHT22;6034;46.864;15.216;2023-12-07T21:28:06;0.70;99.90
1678;DHT22;6034;46.864;15.216;2023-12-07T21:30:34;0.70;99.90
1678;DHT22;6034;46.864;15.216;2023-12-07T21:33:04;0.70;99.90
1678;DHT22;6034;46.864;15.216;2023-12-07T21:35:33;0.70;99.90
1678;DHT22;6034;46.864;15.216;2023-12-07T21:38:01;0.80;99.90
1678;DHT22;6034;46.864;15.216;2023-12-07T21:40:28;0.80;99.90
1678;DHT22;6034;46.864;15.216;2023-12-07T21:42:56;0.70;99.90
1678;DHT22;6034;46.864;15.216;2023-12-07T21:45:24;0.70;99.90
1678;DHT22;6034;46.864;15.216;2023-12-07T21:47:51;0.70;99.90
1678;DHT22;6034;46.864;15.216;2023-12-07T21:50:18;0.70;99.90
1678;DHT22;6034;46.864;15.216;2023-12-07T21:52:47;0.70;99.90
1678;DHT22;6034;46.864;15.216;2023-12-07T21:55:16;0.70;99.90
1678;DHT22;6034;46.864;15.216;2023-12-07T21:57:43;0.70;99.90
1678;DHT22;6034;46.864;15.216;2023-12-07T22:00:12;0.60;99.90
1678;DHT22;6034;46.864;15.216;2023-12-07T22:02:39;0.60;99.90
1678;DHT22;6034;46.864;15.216;2023-12-07T22:05:07;0.60;99.90
1678;DHT22;6034;46.864;15.216;2023-12-07T22:07:37;0.50;99.90
1678;DHT22;6034;46.864;15.216;2023-12-07T22:10:07;0.60;99.90
1678;DHT22;6034;46.864;15.216;2023-12-07T22:12:34;0.50;99.90
1678;DHT22;6034;46.864;15.216;2023-12-07T22:15:02;0.40;99.90
1678;DHT22;6034;46.864;15.216;2023-12-07T22:17:30;0.10;99.90
1678;DHT22;6034;46.864;15.216;2023-12-07T22:19:57;0.40;99.90
1678;DHT22;6034;46.864;15.216;2023-12-07T22:22:25;0.40;99.90
1678;DHT22;6034;46.864;15.216;2023-12-07T22:24:52;0.40;99.90
1678;DHT22;6034;46.864;15.216;2023-12-07T22:27:21;0.40;99.90
1678;DHT22;6034;46.864;15.216;2023-12-07T22:29:48;0.40;99.90
1678;DHT22;6034;46.864;15.216;2023-12-07T22:32:16;0.30;99.90
1678;DHT22;6034;46.864;15.216;2023-12-07T22:34:43;0.30;99.90
1678;DHT22;6034;46.864;15.216;2023-12-07T22:37:11;0.30;99.90